YPI weather

CLOSED Port Simpson Seaplane Base
Lax Kw'alaams, British Columbia, Canada

Public forecast

Using degrees Celsius for public forecast. Weather courtesy of forecast.io.

METAR (pilot weather report)

Closest report is Prince Rupert Airport, 16.9 nm (31.2 km) S. Retrieved 2019/07/18 01:00 UTC (40 minutes ago):

CYPR 180100Z AUTO 25006KT 220V300 9SM -RA BKN010 OVC055 13/12 A2967 RMK SLP049

TAF (pilot weather forecast)

Closest forecast is Prince Rupert Airport, 16.9 nm (31.2 km) S. Retrieved 2019/07/18 01:39 UTC (40 seconds ago):

TAF TAF CYPR 180038Z 1801/1813 26012KT P6SM -SHRA SCT015 OVC025 TEMPO 1801/1805 4SM -SHRA BR SCT008 OVC015 FM180500 26008KT P6SM -SHRA SCT006 OVC020 TEMPO 1805/1813 2SM -SHRA BR BKN006 OVC012 PROB30 1810/1813 1SM -SHRA BR BKN005 OVC010 RMK FCST BASED ON AUTO OBS. NXT FCST BY 180700Z